Herne Bay, United Kingdom
Current Conditions -  °F | °C
As of 6:20 PM on Tuesday 21 Oct 2014 (Local Time) from EGMC Reporting Station
Few Clouds Few Clouds  
Wind Chill: 50°   Ceiling: Unl
Heat Index: 50°   Visibility: 6mi
Dew Point: 37°   Wind: 18mph
Humidity: 62%   Direction: 290°WNW
Pressure: 29.85"   Gusts: 35mph
Location:  51.37°N, 1.13°E
Report Text: EGMC 211720Z 29016G30KT 260V320 9999 FEW040 10/03 Q1011
Loading
Personal Weather Stations






























Interactive Weather Map
Tropical Storm Tracking
New forecast layout! Learn more

10-Day Weather Forecast

Advertisements
Track Severe Weather on mobile